Terminal Aerodrome Forecast
Issued by NWS

Home | Current Version | Previous Version | Text Only | Print | Product List | Glossary On
Versions: 1 2 3 4 5 6 7 8 9 10 11 12 13 14 15 16 17
000
FTUS41 KCLE 011700 RRA
TAFFDY
TAF
KFDY 011746Z 0118/0218 08012G18KT 1 1/2SM -SN BR OVC004
      TEMPO 0118/0121 1/2SM SN BLSN OVC006
     FM012100 09015G25KT 1/2SM SN BLSN OVC003
      TEMPO 0121/0201 1/4SM +SN
     FM020600 01018G28KT 3/4SM -SN BLSN OVC004
     FM021400 34020G32KT 2SM BLSN OVC010=

USA.gov is the U.S. government's official web portal to all federal, state and local government web resources and services.